sensor_id;sensor_type;location;lat;lon;timestamp;P1;durP1;ratioP1;P2;durP2;ratioP2
74620;SDS011;64861;47.546;19.254;2022-12-08T00:00:19;20.80;;;13.95;;
74620;SDS011;64861;47.546;19.254;2022-12-08T00:02:45;20.38;;;12.35;;
74620;SDS011;64861;47.546;19.254;2022-12-08T00:05:10;19.95;;;12.48;;
74620;SDS011;64861;47.546;19.254;2022-12-08T00:08:14;22.85;;;13.32;;
74620;SDS011;64861;47.546;19.254;2022-12-08T00:10:58;19.77;;;12.35;;
74620;SDS011;64861;47.546;19.254;2022-12-08T00:13:24;20.42;;;12.10;;
74620;SDS011;64861;47.546;19.254;2022-12-08T00:15:49;19.08;;;12.70;;
74620;SDS011;64861;47.546;19.254;2022-12-08T00:18:14;22.63;;;12.75;;
74620;SDS011;64861;47.546;19.254;2022-12-08T00:20:40;19.92;;;13.05;;
74620;SDS011;64861;47.546;19.254;2022-12-08T00:23:05;21.77;;;13.75;;
74620;SDS011;64861;47.546;19.254;2022-12-08T00:25:34;21.63;;;13.85;;
74620;SDS011;64861;47.546;19.254;2022-12-08T00:28:01;19.33;;;14.25;;
74620;SDS011;64861;47.546;19.254;2022-12-08T00:30:26;23.20;;;13.02;;
74620;SDS011;64861;47.546;19.254;2022-12-08T00:32:51;22.65;;;14.27;;
74620;SDS011;64861;47.546;19.254;2022-12-08T00:35:17;21.63;;;13.60;;
74620;SDS011;64861;47.546;19.254;2022-12-08T00:37:42;23.75;;;15.07;;
74620;SDS011;64861;47.546;19.254;2022-12-08T00:40:08;23.95;;;13.88;;
74620;SDS011;64861;47.546;19.254;2022-12-08T00:42:33;24.10;;;14.40;;
74620;SDS011;64861;47.546;19.254;2022-12-08T00:44:59;20.60;;;13.07;;
74620;SDS011;64861;47.546;19.254;2022-12-08T00:47:24;23.98;;;14.90;;
74620;SDS011;64861;47.546;19.254;2022-12-08T00:49:50;21.80;;;12.63;;
74620;SDS011;64861;47.546;19.254;2022-12-08T00:52:16;21.38;;;13.32;;
74620;SDS011;64861;47.546;19.254;2022-12-08T00:54:41;26.75;;;13.57;;
74620;SDS011;64861;47.546;19.254;2022-12-08T00:57:06;20.02;;;13.25;;
74620;SDS011;64861;47.546;19.254;2022-12-08T00:59:32;21.60;;;13.60;;
74620;SDS011;64861;47.546;19.254;2022-12-08T01:01:57;22.70;;;14.15;;
74620;SDS011;64861;47.546;19.254;2022-12-08T01:04:23;21.13;;;13.57;;
74620;SDS011;64861;47.546;19.254;2022-12-08T01:06:48;22.52;;;13.82;;
74620;SDS011;64861;47.546;19.254;2022-12-08T01:09:15;21.50;;;14.23;;
74620;SDS011;64861;47.546;19.254;2022-12-08T01:11:41;21.63;;;13.05;;
74620;SDS011;64861;47.546;19.254;2022-12-08T01:14:08;21.80;;;14.07;;
74620;SDS011;64861;47.546;19.254;2022-12-08T01:16:34;23.02;;;13.63;;
74620;SDS011;64861;47.546;19.254;2022-12-08T01:19:01;22.45;;;14.70;;
74620;SDS011;64861;47.546;19.254;2022-12-08T01:21:27;21.45;;;13.70;;
74620;SDS011;64861;47.546;19.254;2022-12-08T01:23:53;19.65;;;12.95;;
74620;SDS011;64861;47.546;19.254;2022-12-08T01:26:19;21.05;;;13.32;;
74620;SDS011;64861;47.546;19.254;2022-12-08T01:28:45;21.95;;;13.50;;
74620;SDS011;64861;47.546;19.254;2022-12-08T01:31:11;21.27;;;13.27;;
74620;SDS011;64861;47.546;19.254;2022-12-08T01:33:38;20.30;;;12.95;;
74620;SDS011;64861;47.546;19.254;2022-12-08T01:36:04;23.70;;;13.00;;
74620;SDS011;64861;47.546;19.254;2022-12-08T01:38:30;21.73;;;13.57;;
74620;SDS011;64861;47.546;19.254;2022-12-08T01:40:56;20.70;;;12.93;;
74620;SDS011;64861;47.546;19.254;2022-12-08T01:43:22;21.25;;;13.00;;
74620;SDS011;64861;47.546;19.254;2022-12-08T01:45:48;23.13;;;14.23;;
74620;SDS011;64861;47.546;19.254;2022-12-08T01:48:15;21.92;;;13.90;;
74620;SDS011;64861;47.546;19.254;2022-12-08T01:50:45;19.92;;;13.05;;
74620;SDS011;64861;47.546;19.254;2022-12-08T01:53:22;19.65;;;13.38;;
74620;SDS011;64861;47.546;19.254;2022-12-08T01:56:14;20.15;;;12.73;;
74620;SDS011;64861;47.546;19.254;2022-12-08T01:58:46;20.77;;;12.68;;
74620;SDS011;64861;47.546;19.254;2022-12-08T02:01:14;20.38;;;12.93;;
74620;SDS011;64861;47.546;19.254;2022-12-08T02:03:41;21.30;;;13.23;;
74620;SDS011;64861;47.546;19.254;2022-12-08T02:06:11;20.27;;;13.55;;
74620;SDS011;64861;47.546;19.254;2022-12-08T02:08:38;19.08;;;12.45;;
74620;SDS011;64861;47.546;19.254;2022-12-08T02:11:08;20.40;;;12.57;;
74620;SDS011;64861;47.546;19.254;2022-12-08T02:13:34;20.45;;;12.70;;
74620;SDS011;64861;47.546;19.254;2022-12-08T02:21:26;17.13;;;11.65;;
74620;SDS011;64861;47.546;19.254;2022-12-08T02:24:04;20.15;;;11.77;;
74620;SDS011;64861;47.546;19.254;2022-12-08T02:37:34;18.55;;;12.30;;
74620;SDS011;64861;47.546;19.254;2022-12-08T02:40:10;19.17;;;12.05;;
74620;SDS011;64861;47.546;19.254;2022-12-08T02:43:08;19.35;;;12.07;;
74620;SDS011;64861;47.546;19.254;2022-12-08T02:45:45;17.98;;;11.52;;
74620;SDS011;64861;47.546;19.254;2022-12-08T02:50:39;17.98;;;11.45;;
74620;SDS011;64861;47.546;19.254;2022-12-08T02:53:05;16.23;;;10.95;;
74620;SDS011;64861;47.546;19.254;2022-12-08T02:55:38;16.77;;;11.20;;
74620;SDS011;64861;47.546;19.254;2022-12-08T02:58:29;19.07;;;11.17;;
74620;SDS011;64861;47.546;19.254;2022-12-08T03:03:55;15.77;;;10.75;;
74620;SDS011;64861;47.546;19.254;2022-12-08T03:06:34;16.70;;;10.90;;
74620;SDS011;64861;47.546;19.254;2022-12-08T03:14:34;15.30;;;10.52;;
74620;SDS011;64861;47.546;19.254;2022-12-08T03:17:02;16.63;;;10.85;;
74620;SDS011;64861;47.546;19.254;2022-12-08T03:19:30;16.38;;;10.73;;
74620;SDS011;64861;47.546;19.254;2022-12-08T03:21:58;15.95;;;10.43;;
74620;SDS011;64861;47.546;19.254;2022-12-08T03:24:33;19.13;;;10.95;;
74620;SDS011;64861;47.546;19.254;2022-12-08T03:27:14;16.60;;;10.43;;
74620;SDS011;64861;47.546;19.254;2022-12-08T03:29:48;15.90;;;9.90;;
74620;SDS011;64861;47.546;19.254;2022-12-08T03:32:31;16.38;;;10.43;;
74620;SDS011;64861;47.546;19.254;2022-12-08T03:35:02;14.98;;;9.93;;
74620;SDS011;64861;47.546;19.254;2022-12-08T03:37:34;17.50;;;10.40;;
74620;SDS011;64861;47.546;19.254;2022-12-08T03:40:00;14.75;;;10.10;;
74620;SDS011;64861;47.546;19.254;2022-12-08T03:42:28;15.38;;;10.27;;
74620;SDS011;64861;47.546;19.254;2022-12-08T03:44:53;14.63;;;9.45;;
74620;SDS011;64861;47.546;19.254;2022-12-08T03:47:18;15.95;;;9.80;;
74620;SDS011;64861;47.546;19.254;2022-12-08T03:49:44;18.02;;;9.88;;
74620;SDS011;64861;47.546;19.254;2022-12-08T03:52:09;13.73;;;9.07;;
74620;SDS011;64861;47.546;19.254;2022-12-08T03:54:35;14.00;;;9.63;;
74620;SDS011;64861;47.546;19.254;2022-12-08T03:57:00;15.27;;;9.82;;
74620;SDS011;64861;47.546;19.254;2022-12-08T03:59:26;14.27;;;9.25;;
74620;SDS011;64861;47.546;19.254;2022-12-08T04:01:51;13.45;;;9.15;;
74620;SDS011;64861;47.546;19.254;2022-12-08T04:04:17;14.10;;;9.00;;
74620;SDS011;64861;47.546;19.254;2022-12-08T04:06:42;12.68;;;9.02;;
74620;SDS011;64861;47.546;19.254;2022-12-08T04:09:08;14.10;;;9.10;;
74620;SDS011;64861;47.546;19.254;2022-12-08T04:11:33;13.82;;;8.65;;
74620;SDS011;64861;47.546;19.254;2022-12-08T04:13:59;14.43;;;9.10;;
74620;SDS011;64861;47.546;19.254;2022-12-08T04:16:24;13.48;;;8.90;;
74620;SDS011;64861;47.546;19.254;2022-12-08T04:18:51;14.45;;;8.90;;
74620;SDS011;64861;47.546;19.254;2022-12-08T04:21:17;15.63;;;9.20;;
74620;SDS011;64861;47.546;19.254;2022-12-08T04:23:43;12.98;;;8.73;;
74620;SDS011;64861;47.546;19.254;2022-12-08T04:26:09;17.50;;;9.20;;
74620;SDS011;64861;47.546;19.254;2022-12-08T04:28:34;12.93;;;8.18;;
74620;SDS011;64861;47.546;19.254;2022-12-08T04:31:00;16.98;;;9.15;;
74620;SDS011;64861;47.546;19.254;2022-12-08T04:33:25;14.63;;;8.60;;
74620;SDS011;64861;47.546;19.254;2022-12-08T04:35:51;15.57;;;8.40;;
74620;SDS011;64861;47.546;19.254;2022-12-08T04:38:17;11.88;;;8.27;;
74620;SDS011;64861;47.546;19.254;2022-12-08T04:40:42;13.52;;;8.57;;
74620;SDS011;64861;47.546;19.254;2022-12-08T04:43:08;14.60;;;8.68;;
74620;SDS011;64861;47.546;19.254;2022-12-08T04:45:33;14.00;;;8.40;;
74620;SDS011;64861;47.546;19.254;2022-12-08T04:47:59;13.90;;;8.80;;
74620;SDS011;64861;47.546;19.254;2022-12-08T04:50:26;15.93;;;8.65;;
74620;SDS011;64861;47.546;19.254;2022-12-08T04:52:52;12.27;;;8.15;;
74620;SDS011;64861;47.546;19.254;2022-12-08T04:55:18;21.45;;;8.88;;
74620;SDS011;64861;47.546;19.254;2022-12-08T04:57:43;14.05;;;8.65;;
74620;SDS011;64861;47.546;19.254;2022-12-08T05:00:09;16.15;;;8.65;;
74620;SDS011;64861;47.546;19.254;2022-12-08T05:02:35;12.90;;;8.20;;
74620;SDS011;64861;47.546;19.254;2022-12-08T05:05:01;12.68;;;8.40;;
74620;SDS011;64861;47.546;19.254;2022-12-08T05:07:27;13.48;;;7.93;;
74620;SDS011;64861;47.546;19.254;2022-12-08T05:09:52;14.32;;;8.80;;
74620;SDS011;64861;47.546;19.254;2022-12-08T05:12:18;15.52;;;8.52;;
74620;SDS011;64861;47.546;19.254;2022-12-08T05:14:45;13.30;;;8.15;;
74620;SDS011;64861;47.546;19.254;2022-12-08T05:17:12;13.02;;;8.57;;
74620;SDS011;64861;47.546;19.254;2022-12-08T05:19:37;14.38;;;8.43;;
74620;SDS011;64861;47.546;19.254;2022-12-08T05:22:03;12.65;;;7.93;;
74620;SDS011;64861;47.546;19.254;2022-12-08T05:24:28;12.50;;;8.30;;
74620;SDS011;64861;47.546;19.254;2022-12-08T05:26:54;14.32;;;7.75;;
74620;SDS011;64861;47.546;19.254;2022-12-08T05:29:19;13.50;;;8.52;;
74620;SDS011;64861;47.546;19.254;2022-12-08T05:31:45;13.90;;;8.10;;
74620;SDS011;64861;47.546;19.254;2022-12-08T05:34:10;12.55;;;7.70;;
74620;SDS011;64861;47.546;19.254;2022-12-08T05:36:35;15.90;;;8.02;;
74620;SDS011;64861;47.546;19.254;2022-12-08T05:39:01;11.50;;;7.28;;
74620;SDS011;64861;47.546;19.254;2022-12-08T05:41:27;12.57;;;7.70;;
74620;SDS011;64861;47.546;19.254;2022-12-08T05:43:55;13.80;;;8.23;;
74620;SDS011;64861;47.546;19.254;2022-12-08T05:46:20;12.90;;;7.13;;
74620;SDS011;64861;47.546;19.254;2022-12-08T05:48:46;13.88;;;8.30;;
74620;SDS011;64861;47.546;19.254;2022-12-08T05:51:16;11.07;;;7.53;;
74620;SDS011;64861;47.546;19.254;2022-12-08T05:53:44;11.68;;;7.70;;
74620;SDS011;64861;47.546;19.254;2022-12-08T05:56:10;12.88;;;7.90;;
74620;SDS011;64861;47.546;19.254;2022-12-08T05:58:35;13.30;;;8.48;;
74620;SDS011;64861;47.546;19.254;2022-12-08T06:01:01;12.90;;;8.05;;
74620;SDS011;64861;47.546;19.254;2022-12-08T06:03:27;14.32;;;8.48;;
74620;SDS011;64861;47.546;19.254;2022-12-08T06:05:52;12.52;;;8.32;;
74620;SDS011;64861;47.546;19.254;2022-12-08T06:08:18;14.35;;;9.15;;
74620;SDS011;64861;47.546;19.254;2022-12-08T06:10:43;13.43;;;8.25;;
74620;SDS011;64861;47.546;19.254;2022-12-08T06:13:10;14.07;;;8.43;;
74620;SDS011;64861;47.546;19.254;2022-12-08T06:15:36;11.60;;;7.63;;
74620;SDS011;64861;47.546;19.254;2022-12-08T06:18:02;13.18;;;7.63;;
74620;SDS011;64861;47.546;19.254;2022-12-08T06:20:28;13.15;;;8.30;;
74620;SDS011;64861;47.546;19.254;2022-12-08T06:22:54;15.20;;;8.50;;
74620;SDS011;64861;47.546;19.254;2022-12-08T06:25:20;18.35;;;8.13;;
74620;SDS011;64861;47.546;19.254;2022-12-08T06:27:46;12.73;;;7.90;;
74620;SDS011;64861;47.546;19.254;2022-12-08T06:30:11;12.90;;;8.23;;
74620;SDS011;64861;47.546;19.254;2022-12-08T06:32:37;12.90;;;8.18;;
74620;SDS011;64861;47.546;19.254;2022-12-08T06:35:03;12.40;;;8.32;;
74620;SDS011;64861;47.546;19.254;2022-12-08T06:37:28;12.43;;;8.02;;
74620;SDS011;64861;47.546;19.254;2022-12-08T06:39:54;13.98;;;8.05;;
74620;SDS011;64861;47.546;19.254;2022-12-08T06:42:19;13.45;;;7.70;;
74620;SDS011;64861;47.546;19.254;2022-12-08T06:45:03;13.70;;;8.05;;
74620;SDS011;64861;47.546;19.254;2022-12-08T06:47:29;15.43;;;8.68;;
74620;SDS011;64861;47.546;19.254;2022-12-08T06:49:54;15.32;;;9.00;;
74620;SDS011;64861;47.546;19.254;2022-12-08T06:52:20;14.25;;;8.73;;
74620;SDS011;64861;47.546;19.254;2022-12-08T06:54:45;12.15;;;8.27;;
74620;SDS011;64861;47.546;19.254;2022-12-08T06:57:11;14.43;;;8.65;;
74620;SDS011;64861;47.546;19.254;2022-12-08T06:59:37;13.68;;;8.18;;
74620;SDS011;64861;47.546;19.254;2022-12-08T07:02:03;14.85;;;8.68;;
74620;SDS011;64861;47.546;19.254;2022-12-08T07:04:29;14.60;;;7.78;;
74620;SDS011;64861;47.546;19.254;2022-12-08T07:06:54;13.82;;;8.70;;
74620;SDS011;64861;47.546;19.254;2022-12-08T07:09:20;12.52;;;7.97;;
74620;SDS011;64861;47.546;19.254;2022-12-08T07:11:45;13.30;;;8.45;;
74620;SDS011;64861;47.546;19.254;2022-12-08T07:14:11;15.98;;;9.23;;
74620;SDS011;64861;47.546;19.254;2022-12-08T07:16:37;13.85;;;9.15;;
74620;SDS011;64861;47.546;19.254;2022-12-08T07:19:03;13.55;;;8.85;;
74620;SDS011;64861;47.546;19.254;2022-12-08T07:21:29;16.33;;;9.35;;
74620;SDS011;64861;47.546;19.254;2022-12-08T07:23:55;16.95;;;10.07;;
74620;SDS011;64861;47.546;19.254;2022-12-08T07:26:20;15.32;;;9.93;;
74620;SDS011;64861;47.546;19.254;2022-12-08T07:28:46;17.70;;;10.00;;
74620;SDS011;64861;47.546;19.254;2022-12-08T07:31:19;14.55;;;9.70;;
74620;SDS011;64861;47.546;19.254;2022-12-08T07:33:47;19.13;;;9.45;;
74620;SDS011;64861;47.546;19.254;2022-12-08T07:36:12;18.67;;;9.48;;
74620;SDS011;64861;47.546;19.254;2022-12-08T07:38:38;17.75;;;9.40;;
74620;SDS011;64861;47.546;19.254;2022-12-08T07:41:04;18.15;;;10.05;;
74620;SDS011;64861;47.546;19.254;2022-12-08T07:43:29;25.10;;;9.20;;
74620;SDS011;64861;47.546;19.254;2022-12-08T07:45:55;40.47;;;9.57;;
74620;SDS011;64861;47.546;19.254;2022-12-08T07:48:20;22.88;;;10.38;;
74620;SDS011;64861;47.546;19.254;2022-12-08T07:50:46;48.42;;;12.55;;
74620;SDS011;64861;47.546;19.254;2022-12-08T07:53:12;48.88;;;11.75;;
74620;SDS011;64861;47.546;19.254;2022-12-08T07:55:40;32.05;;;11.30;;
74620;SDS011;64861;47.546;19.254;2022-12-08T07:58:06;37.05;;;12.15;;
74620;SDS011;64861;47.546;19.254;2022-12-08T08:00:32;41.65;;;11.93;;
74620;SDS011;64861;47.546;19.254;2022-12-08T08:02:58;38.28;;;12.70;;
74620;SDS011;64861;47.546;19.254;2022-12-08T08:05:24;37.72;;;9.68;;
74620;SDS011;64861;47.546;19.254;2022-12-08T08:07:49;27.65;;;12.23;;
74620;SDS011;64861;47.546;19.254;2022-12-08T08:10:15;26.45;;;10.52;;
74620;SDS011;64861;47.546;19.254;2022-12-08T08:12:40;30.52;;;10.45;;
74620;SDS011;64861;47.546;19.254;2022-12-08T08:15:07;23.15;;;10.63;;
74620;SDS011;64861;47.546;19.254;2022-12-08T08:17:34;24.98;;;10.50;;
74620;SDS011;64861;47.546;19.254;2022-12-08T08:20:01;24.42;;;12.35;;
74620;SDS011;64861;47.546;19.254;2022-12-08T08:22:27;34.67;;;11.50;;
74620;SDS011;64861;47.546;19.254;2022-12-08T08:24:53;32.03;;;10.43;;
74620;SDS011;64861;47.546;19.254;2022-12-08T08:27:19;35.50;;;11.75;;
74620;SDS011;64861;47.546;19.254;2022-12-08T08:29:45;27.40;;;10.38;;
74620;SDS011;64861;47.546;19.254;2022-12-08T08:32:10;31.85;;;10.18;;
74620;SDS011;64861;47.546;19.254;2022-12-08T08:34:36;28.85;;;11.30;;
74620;SDS011;64861;47.546;19.254;2022-12-08T08:37:02;27.98;;;10.43;;
74620;SDS011;64861;47.546;19.254;2022-12-08T08:39:27;24.40;;;10.68;;
74620;SDS011;64861;47.546;19.254;2022-12-08T08:41:54;28.75;;;10.63;;
74620;SDS011;64861;47.546;19.254;2022-12-08T08:44:19;27.80;;;10.27;;
74620;SDS011;64861;47.546;19.254;2022-12-08T08:46:45;28.80;;;10.52;;
74620;SDS011;64861;47.546;19.254;2022-12-08T08:49:10;25.38;;;10.27;;
74620;SDS011;64861;47.546;19.254;2022-12-08T08:51:36;26.80;;;10.25;;
74620;SDS011;64861;47.546;19.254;2022-12-08T08:54:01;23.70;;;9.77;;
74620;SDS011;64861;47.546;19.254;2022-12-08T08:56:27;20.15;;;9.73;;
74620;SDS011;64861;47.546;19.254;2022-12-08T08:58:52;33.05;;;10.43;;
74620;SDS011;64861;47.546;19.254;2022-12-08T09:01:20;24.80;;;10.10;;
74620;SDS011;64861;47.546;19.254;2022-12-08T09:03:49;25.95;;;10.50;;
74620;SDS011;64861;47.546;19.254;2022-12-08T09:06:15;19.92;;;9.13;;
74620;SDS011;64861;47.546;19.254;2022-12-08T09:08:42;21.92;;;9.55;;
74620;SDS011;64861;47.546;19.254;2022-12-08T09:11:08;17.00;;;9.13;;
74620;SDS011;64861;47.546;19.254;2022-12-08T09:13:34;19.10;;;9.43;;
74620;SDS011;64861;47.546;19.254;2022-12-08T09:16:00;19.48;;;9.45;;
74620;SDS011;64861;47.546;19.254;2022-12-08T09:18:27;17.27;;;8.73;;
74620;SDS011;64861;47.546;19.254;2022-12-08T09:20:52;15.05;;;8.75;;
74620;SDS011;64861;47.546;19.254;2022-12-08T09:23:18;23.00;;;9.80;;
74620;SDS011;64861;47.546;19.254;2022-12-08T09:25:44;16.70;;;8.60;;
74620;SDS011;64861;47.546;19.254;2022-12-08T09:28:10;15.15;;;8.68;;
74620;SDS011;64861;47.546;19.254;2022-12-08T09:30:35;19.67;;;8.95;;
74620;SDS011;64861;47.546;19.254;2022-12-08T09:33:01;20.10;;;8.82;;
74620;SDS011;64861;47.546;19.254;2022-12-08T09:35:27;16.30;;;8.65;;
74620;SDS011;64861;47.546;19.254;2022-12-08T09:37:52;16.65;;;8.52;;
74620;SDS011;64861;47.546;19.254;2022-12-08T09:40:19;17.48;;;8.73;;
74620;SDS011;64861;47.546;19.254;2022-12-08T09:45:44;17.90;;;9.07;;
74620;SDS011;64861;47.546;19.254;2022-12-08T09:48:15;14.40;;;8.00;;
74620;SDS011;64861;47.546;19.254;2022-12-08T09:50:50;16.40;;;8.18;;
74620;SDS011;64861;47.546;19.254;2022-12-08T09:53:20;18.75;;;7.43;;
74620;SDS011;64861;47.546;19.254;2022-12-08T10:01:36;32.22;;;9.88;;
74620;SDS011;64861;47.546;19.254;2022-12-08T10:04:13;28.25;;;9.15;;
74620;SDS011;64861;47.546;19.254;2022-12-08T10:06:45;37.20;;;8.77;;
74620;SDS011;64861;47.546;19.254;2022-12-08T10:12:04;52.08;;;9.73;;
74620;SDS011;64861;47.546;19.254;2022-12-08T10:17:11;46.30;;;10.30;;
74620;SDS011;64861;47.546;19.254;2022-12-08T10:19:42;46.67;;;10.75;;
74620;SDS011;64861;47.546;19.254;2022-12-08T10:22:20;67.35;;;11.07;;
74620;SDS011;64861;47.546;19.254;2022-12-08T10:27:24;67.93;;;10.77;;
74620;SDS011;64861;47.546;19.254;2022-12-08T10:29:50;64.57;;;10.60;;
74620;SDS011;64861;47.546;19.254;2022-12-08T10:32:19;68.47;;;9.65;;
74620;SDS011;64861;47.546;19.254;2022-12-08T10:34:57;67.53;;;10.85;;
74620;SDS011;64861;47.546;19.254;2022-12-08T10:37:28;48.95;;;10.45;;
74620;SDS011;64861;47.546;19.254;2022-12-08T10:42:42;47.30;;;10.48;;
74620;SDS011;64861;47.546;19.254;2022-12-08T10:48:04;67.28;;;11.02;;
74620;SDS011;64861;47.546;19.254;2022-12-08T10:56:04;54.35;;;10.07;;
74620;SDS011;64861;47.546;19.254;2022-12-08T10:58:38;54.53;;;10.35;;
74620;SDS011;64861;47.546;19.254;2022-12-08T11:01:08;68.18;;;11.13;;
74620;SDS011;64861;47.546;19.254;2022-12-08T11:06:34;59.53;;;11.60;;
74620;SDS011;64861;47.546;19.254;2022-12-08T11:09:03;86.63;;;12.65;;
74620;SDS011;64861;47.546;19.254;2022-12-08T11:11:51;89.95;;;11.60;;
74620;SDS011;64861;47.546;19.254;2022-12-08T11:14:31;79.75;;;11.65;;
74620;SDS011;64861;47.546;19.254;2022-12-08T11:19:27;102.47;;;13.63;;
74620;SDS011;64861;47.546;19.254;2022-12-08T11:21:53;113.85;;;14.65;;
74620;SDS011;64861;47.546;19.254;2022-12-08T11:24:22;116.80;;;13.60;;
74620;SDS011;64861;47.546;19.254;2022-12-08T11:27:03;136.95;;;14.05;;
74620;SDS011;64861;47.546;19.254;2022-12-08T11:29:31;175.80;;;16.38;;
74620;SDS011;64861;47.546;19.254;2022-12-08T11:31:59;147.02;;;16.50;;
74620;SDS011;64861;47.546;19.254;2022-12-08T11:34:36;102.90;;;13.43;;
74620;SDS011;64861;47.546;19.254;2022-12-08T11:37:11;114.43;;;14.50;;
74620;SDS011;64861;47.546;19.254;2022-12-08T11:39:43;189.48;;;14.90;;
74620;SDS011;64861;47.546;19.254;2022-12-08T11:42:13;163.60;;;16.83;;
74620;SDS011;64861;47.546;19.254;2022-12-08T11:44:58;193.23;;;16.20;;
74620;SDS011;64861;47.546;19.254;2022-12-08T11:47:50;204.18;;;17.25;;
74620;SDS011;64861;47.546;19.254;2022-12-08T11:50:24;245.07;;;17.67;;
74620;SDS011;64861;47.546;19.254;2022-12-08T11:52:53;159.93;;;16.90;;
74620;SDS011;64861;47.546;19.254;2022-12-08T11:58:00;137.70;;;14.80;;
74620;SDS011;64861;47.546;19.254;2022-12-08T12:00:33;104.55;;;15.13;;
74620;SDS011;64861;47.546;19.254;2022-12-08T12:03:02;133.45;;;14.82;;
74620;SDS011;64861;47.546;19.254;2022-12-08T12:05:44;116.72;;;15.65;;
74620;SDS011;64861;47.546;19.254;2022-12-08T12:11:12;102.45;;;14.57;;
74620;SDS011;64861;47.546;19.254;2022-12-08T12:14:12;103.80;;;13.82;;
74620;SDS011;64861;47.546;19.254;2022-12-08T12:19:13;79.80;;;13.25;;
74620;SDS011;64861;47.546;19.254;2022-12-08T12:21:47;96.10;;;13.48;;
74620;SDS011;64861;47.546;19.254;2022-12-08T12:24:18;77.10;;;11.68;;
74620;SDS011;64861;47.546;19.254;2022-12-08T12:29:23;97.53;;;12.68;;
74620;SDS011;64861;47.546;19.254;2022-12-08T12:31:53;90.32;;;12.80;;
74620;SDS011;64861;47.546;19.254;2022-12-08T12:34:24;96.60;;;12.48;;
74620;SDS011;64861;47.546;19.254;2022-12-08T12:37:02;81.45;;;12.50;;
74620;SDS011;64861;47.546;19.254;2022-12-08T12:42:34;71.72;;;15.98;;
74620;SDS011;64861;47.546;19.254;2022-12-08T12:50:36;61.95;;;11.93;;
74620;SDS011;64861;47.546;19.254;2022-12-08T13:03:34;65.53;;;12.18;;
74620;SDS011;64861;47.546;19.254;2022-12-08T13:06:14;307.80;;;27.55;;
74620;SDS011;64861;47.546;19.254;2022-12-08T13:08:57;441.77;;;34.50;;
74620;SDS011;64861;47.546;19.254;2022-12-08T13:11:24;221.02;;;19.42;;
74620;SDS011;64861;47.546;19.254;2022-12-08T13:14:00;178.25;;;17.73;;
74620;SDS011;64861;47.546;19.254;2022-12-08T13:16:32;199.02;;;19.58;;
74620;SDS011;64861;47.546;19.254;2022-12-08T13:19:04;236.48;;;19.63;;
74620;SDS011;64861;47.546;19.254;2022-12-08T13:21:38;250.85;;;21.90;;
74620;SDS011;64861;47.546;19.254;2022-12-08T13:31:53;323.23;;;23.50;;
74620;SDS011;64861;47.546;19.254;2022-12-08T13:42:28;335.80;;;25.48;;
74620;SDS011;64861;47.546;19.254;2022-12-08T13:45:12;351.65;;;25.48;;
74620;SDS011;64861;47.546;19.254;2022-12-08T13:47:43;316.33;;;27.13;;
74620;SDS011;64861;47.546;19.254;2022-12-08T13:50:13;306.70;;;24.33;;
74620;SDS011;64861;47.546;19.254;2022-12-08T13:52:50;329.83;;;25.80;;
74620;SDS011;64861;47.546;19.254;2022-12-08T13:55:27;309.35;;;25.42;;
74620;SDS011;64861;47.546;19.254;2022-12-08T13:57:58;294.17;;;22.83;;
74620;SDS011;64861;47.546;19.254;2022-12-08T14:00:23;311.58;;;25.50;;
74620;SDS011;64861;47.546;19.254;2022-12-08T14:02:51;357.55;;;26.25;;
74620;SDS011;64861;47.546;19.254;2022-12-08T14:05:24;321.05;;;27.00;;
74620;SDS011;64861;47.546;19.254;2022-12-08T14:07:52;346.83;;;27.95;;
74620;SDS011;64861;47.546;19.254;2022-12-08T14:10:20;332.35;;;26.90;;
74620;SDS011;64861;47.546;19.254;2022-12-08T14:12:54;393.13;;;31.02;;
74620;SDS011;64861;47.546;19.254;2022-12-08T14:17:50;368.17;;;29.15;;
74620;SDS011;64861;47.546;19.254;2022-12-08T14:20:27;330.23;;;28.05;;
74620;SDS011;64861;47.546;19.254;2022-12-08T14:22:57;380.00;;;29.08;;
74620;SDS011;64861;47.546;19.254;2022-12-08T14:25:24;367.60;;;31.02;;
74620;SDS011;64861;47.546;19.254;2022-12-08T14:27:58;351.60;;;27.95;;
74620;SDS011;64861;47.546;19.254;2022-12-08T14:30:32;352.83;;;29.13;;
74620;SDS011;64861;47.546;19.254;2022-12-08T14:33:01;323.08;;;26.42;;
74620;SDS011;64861;47.546;19.254;2022-12-08T14:37:58;226.15;;;23.13;;
74620;SDS011;64861;47.546;19.254;2022-12-08T14:48:19;245.18;;;23.67;;
74620;SDS011;64861;47.546;19.254;2022-12-08T14:53:51;311.02;;;25.83;;
74620;SDS011;64861;47.546;19.254;2022-12-08T15:01:34;502.50;;;40.37;;
74620;SDS011;64861;47.546;19.254;2022-12-08T15:04:02;490.90;;;37.35;;
74620;SDS011;64861;47.546;19.254;2022-12-08T15:06:43;534.85;;;41.80;;
74620;SDS011;64861;47.546;19.254;2022-12-08T15:09:15;483.17;;;38.72;;
74620;SDS011;64861;47.546;19.254;2022-12-08T15:11:59;471.98;;;37.13;;
74620;SDS011;64861;47.546;19.254;2022-12-08T15:14:30;471.05;;;37.30;;
74620;SDS011;64861;47.546;19.254;2022-12-08T15:16:58;515.85;;;39.70;;
74620;SDS011;64861;47.546;19.254;2022-12-08T15:22:36;419.67;;;35.25;;
74620;SDS011;64861;47.546;19.254;2022-12-08T15:24:45;401.17;;;31.73;;
74620;SDS011;64861;47.546;19.254;2022-12-08T15:27:15;371.65;;;31.67;;
74620;SDS011;64861;47.546;19.254;2022-12-08T15:29:45;332.58;;;29.50;;
74620;SDS011;64861;47.546;19.254;2022-12-08T15:32:12;337.85;;;29.80;;
74620;SDS011;64861;47.546;19.254;2022-12-08T15:34:40;284.33;;;26.45;;
74620;SDS011;64861;47.546;19.254;2022-12-08T15:37:08;331.13;;;32.50;;
74620;SDS011;64861;47.546;19.254;2022-12-08T15:39:43;330.05;;;27.00;;
74620;SDS011;64861;47.546;19.254;2022-12-08T15:42:09;262.27;;;26.52;;
74620;SDS011;64861;47.546;19.254;2022-12-08T15:44:36;274.23;;;25.10;;
74620;SDS011;64861;47.546;19.254;2022-12-08T15:47:02;240.02;;;24.30;;
74620;SDS011;64861;47.546;19.254;2022-12-08T15:49:28;257.60;;;24.50;;
74620;SDS011;64861;47.546;19.254;2022-12-08T15:51:53;232.13;;;23.92;;
74620;SDS011;64861;47.546;19.254;2022-12-08T15:54:19;240.63;;;24.42;;
74620;SDS011;64861;47.546;19.254;2022-12-08T15:56:46;232.93;;;22.38;;
74620;SDS011;64861;47.546;19.254;2022-12-08T15:59:18;275.00;;;25.42;;
74620;SDS011;64861;47.546;19.254;2022-12-08T16:01:45;269.27;;;24.70;;
74620;SDS011;64861;47.546;19.254;2022-12-08T16:04:12;258.15;;;24.55;;
74620;SDS011;64861;47.546;19.254;2022-12-08T16:06:47;315.02;;;28.33;;
74620;SDS011;64861;47.546;19.254;2022-12-08T16:09:15;310.15;;;26.40;;
74620;SDS011;64861;47.546;19.254;2022-12-08T16:16:57;270.13;;;25.10;;
74620;SDS011;64861;47.546;19.254;2022-12-08T16:19:23;275.35;;;24.40;;
74620;SDS011;64861;47.546;19.254;2022-12-08T16:21:48;266.98;;;24.40;;
74620;SDS011;64861;47.546;19.254;2022-12-08T16:24:14;231.00;;;22.20;;
74620;SDS011;64861;47.546;19.254;2022-12-08T16:26:39;218.80;;;22.65;;
74620;SDS011;64861;47.546;19.254;2022-12-08T16:29:05;195.93;;;20.52;;
74620;SDS011;64861;47.546;19.254;2022-12-08T16:31:31;204.52;;;20.73;;
74620;SDS011;64861;47.546;19.254;2022-12-08T16:33:56;187.73;;;18.38;;